Time;durP1;ratioP1;P1;durP2;ratioP2;P2;SDS_P1;SDS_P2;PMS_P1;PMS_P2;Temp;Humidity;BMP_temperature;BMP_pressure;BME280_temperature;BME280_humidity;BME280_pressure;Samples;Min_cycle;Max_cycle;Signal;HPM_P1;HPM_P2
2021/05/19 00:02:08;;;;;;;17.23;10.78;;;;;;;12.92;94.46;99327.26;1744620;82;21383;-41
2021/05/19 00:04:35;;;;;;;21.55;10.32;;;;;;;12.90;94.32;99329.08;1744575;81;20926;-41
2021/05/19 00:07:02;;;;;;;24.92;11.43;;;;;;;12.86;94.18;99328.81;1747200;82;21009;-41
2021/05/19 00:09:29;;;;;;;18.60;11.40;;;;;;;12.80;94.11;99331.25;1745490;81;21025;-41
2021/05/19 00:11:55;;;;;;;20.97;12.45;;;;;;;12.78;94.13;99337.80;1742879;82;21058;-42
2021/05/19 00:14:22;;;;;;;19.87;13.65;;;;;;;12.73;94.10;99335.88;1738216;82;21037;-42
2021/05/19 00:16:49;;;;;;;23.15;14.35;;;;;;;12.70;94.10;99342.52;1746402;82;20929;-41
2021/05/19 00:19:15;;;;;;;17.25;13.72;;;;;;;12.65;94.03;99340.58;1745392;81;20957;-41
2021/05/19 00:21:42;;;;;;;20.45;15.58;;;;;;;12.61;94.09;99342.47;1743236;82;20937;-41
2021/05/19 00:24:09;;;;;;;31.40;17.55;;;;;;;12.58;94.25;99345.20;1745953;81;21038;-42
2021/05/19 00:26:36;;;;;;;27.37;18.00;;;;;;;12.57;94.39;99339.63;1745935;82;21103;-41
2021/05/19 00:29:08;;;;;;;24.27;18.98;;;;;;;12.59;94.48;99340.83;1747436;81;20997;-41
2021/05/19 00:31:34;;;;;;;31.70;21.48;;;;;;;12.60;94.57;99339.48;1745417;82;21546;-42
2021/05/19 00:34:01;;;;;;;33.70;22.67;;;;;;;12.61;94.55;99332.08;1744729;82;21479;-41
2021/05/19 00:36:27;;;;;;;29.75;20.50;;;;;;;12.61;94.53;99330.78;1745450;82;21079;-42
2021/05/19 00:38:56;;;;;;;27.85;19.67;;;;;;;12.60;94.46;99333.43;1747057;82;21060;-42
2021/05/19 00:41:22;;;;;;;28.57;19.77;;;;;;;12.57;94.36;99337.02;1741329;81;21048;-41
2021/05/19 00:43:49;;;;;;;31.75;19.73;;;;;;;12.55;94.33;99330.20;1744996;82;20985;-41
2021/05/19 00:46:16;;;;;;;25.10;16.20;;;;;;;12.51;94.26;99329.52;1745749;82;21017;-41
2021/05/19 00:48:43;;;;;;;21.77;15.90;;;;;;;12.48;94.28;99332.22;1747178;82;21150;-42
2021/05/19 00:51:11;;;;;;;18.15;14.10;;;;;;;12.47;94.26;99324.05;1746729;81;20950;-41
2021/05/19 00:53:39;;;;;;;24.32;13.68;;;;;;;12.44;94.24;99325.05;1744473;82;20886;-42
2021/05/19 00:56:05;;;;;;;18.50;13.43;;;;;;;12.42;94.09;99328.61;1741969;81;20950;-42
2021/05/19 00:58:33;;;;;;;15.80;13.43;;;;;;;12.38;94.05;99317.98;1747561;82;20949;-41
2021/05/19 01:01:01;;;;;;;22.87;16.27;;;;;;;12.33;93.97;99311.25;1721047;82;21801;-42
2021/05/19 01:03:39;;;;;;;22.80;14.55;;;;;;;12.29;93.94;99317.48;1739866;81;20985;-42
2021/05/19 01:06:10;;;;;;;18.25;13.62;;;;;;;12.23;93.89;99316.43;1746974;81;20875;-42
2021/05/19 01:11:24;;;;;;;20.50;12.03;;;;;;;12.15;93.88;99323.71;1737691;82;20946;-42
2021/05/19 01:13:50;;;;;;;15.88;11.48;;;;;;;12.12;93.85;99326.44;1747186;82;21447;-41
2021/05/19 01:16:17;;;;;;;16.82;10.30;;;;;;;12.11;93.82;99324.76;1720530;82;21467;-41
2021/05/19 01:18:45;;;;;;;19.45;10.28;;;;;;;12.11;93.84;99319.09;1742902;81;21506;-41
2021/05/19 01:21:11;;;;;;;15.45;10.28;;;;;;;12.11;93.83;99324.28;1743788;81;21575;-41
2021/05/19 01:23:38;;;;;;;16.27;9.75;;;;;;;12.11;93.77;99319.56;1746200;82;20964;-41
2021/05/19 01:26:08;;;;;;;17.27;7.65;;;;;;;12.10;93.76;99322.60;1746943;81;21085;-41
2021/05/19 01:28:35;;;;;;;15.28;7.60;;;;;;;12.11;93.76;99327.34;1745809;82;21550;-42
2021/05/19 01:31:04;;;;;;;15.75;6.58;;;;;;;12.13;93.70;99322.94;1742775;82;21053;-41
2021/05/19 01:33:32;;;;;;;20.88;6.47;;;;;;;12.15;93.67;99320.67;1736860;82;21563;-42
2021/05/19 01:35:58;;;;;;;16.82;5.78;;;;;;;12.17;93.62;99329.23;1747061;81;21470;-41
2021/05/19 01:38:26;;;;;;;5.92;3.95;;;;;;;12.19;93.55;99331.74;1744987;81;21046;-42
2021/05/19 01:40:54;;;;;;;14.18;4.47;;;;;;;12.21;93.50;99326.89;1747463;81;20901;-42
2021/05/19 01:43:32;;;;;;;8.95;4.15;;;;;;;12.23;93.48;99343.67;1747252;82;20991;-42
2021/05/19 01:46:02;;;;;;;12.60;3.22;;;;;;;12.27;93.43;99348.28;1725662;81;21068;-42
2021/05/19 01:48:29;;;;;;;13.62;3.75;;;;;;;12.30;93.18;99344.26;1740470;81;20994;-42
2021/05/19 01:50:57;;;;;;;18.23;3.80;;;;;;;12.34;93.07;99349.26;1744332;82;21542;-42
2021/05/19 01:53:25;;;;;;;7.45;2.60;;;;;;;12.38;92.58;99351.72;1746807;82;20981;-41
2021/05/19 01:55:53;;;;;;;7.25;2.17;;;;;;;12.41;92.53;99339.46;1746950;81;20984;-42
2021/05/19 01:58:20;;;;;;;8.58;3.30;;;;;;;12.46;92.44;99337.50;1746052;81;21538;-42
2021/05/19 02:00:46;;;;;;;7.90;2.52;;;;;;;12.47;92.20;99340.48;1746415;82;21609;-41
2021/05/19 02:03:13;;;;;;;12.25;2.50;;;;;;;12.50;92.07;99344.67;1747610;82;21036;-41
2021/05/19 02:05:47;;;;;;;7.60;2.70;;;;;;;12.50;92.04;99345.53;1738107;82;21080;-42
2021/05/19 02:08:14;;;;;;;9.05;2.92;;;;;;;12.53;91.89;99341.97;1744517;82;21597;-41
2021/05/19 02:10:43;;;;;;;8.15;2.47;;;;;;;12.54;91.84;99339.77;1741812;81;20926;-42
2021/05/19 02:13:10;;;;;;;7.87;2.50;;;;;;;12.57;91.78;99337.47;1746155;82;21017;-41
2021/05/19 02:15:39;;;;;;;6.47;2.50;;;;;;;12.58;91.79;99334.81;1741700;82;20941;-42
2021/05/19 02:18:07;;;;;;;13.38;2.70;;;;;;;12.62;91.81;99334.20;1747369;82;21060;-41
2021/05/19 02:20:34;;;;;;;15.68;3.70;;;;;;;12.64;91.82;99329.34;1744361;82;21004;-42
2021/05/19 02:23:01;;;;;;;15.88;3.20;;;;;;;12.67;91.73;99332.70;1744300;82;21012;-41
2021/05/19 02:25:28;;;;;;;22.93;3.45;;;;;;;12.68;91.70;99330.50;1719930;82;21562;-41
2021/05/19 02:27:55;;;;;;;11.50;3.00;;;;;;;12.71;91.67;99334.25;1744132;81;21731;-41
2021/05/19 02:30:25;;;;;;;12.82;3.17;;;;;;;12.74;91.67;99327.17;1746587;81;20985;-42
2021/05/19 02:32:52;;;;;;;23.87;3.33;;;;;;;12.76;91.55;99327.95;1743594;81;21498;-42
2021/05/19 02:35:20;;;;;;;25.97;3.58;;;;;;;12.78;91.46;99324.82;1743435;82;21084;-41
2021/05/19 02:37:48;;;;;;;14.70;3.33;;;;;;;12.80;91.40;99324.77;1745172;82;21018;-41
2021/05/19 02:40:17;;;;;;;8.80;2.85;;;;;;;12.84;91.38;99324.15;1744283;82;20989;-42
2021/05/19 02:42:44;;;;;;;6.50;2.47;;;;;;;12.85;91.35;99326.69;1744819;81;20996;-42
2021/05/19 02:45:15;;;;;;;23.85;2.98;;;;;;;12.88;91.33;99327.84;1720203;82;20969;-41
2021/05/19 02:47:42;;;;;;;7.67;2.33;;;;;;;12.90;91.27;99324.72;1746911;82;21557;-41
2021/05/19 02:50:12;;;;;;;7.33;2.62;;;;;;;12.92;91.31;99318.99;1744708;81;20923;-41
2021/05/19 02:52:38;;;;;;;5.15;2.70;;;;;;;12.94;91.18;99322.36;1747049;81;21087;-41
2021/05/19 02:55:08;;;;;;;5.35;2.62;;;;;;;12.94;91.07;99326.25;1746853;82;21072;-41
2021/05/19 02:57:34;;;;;;;10.08;2.40;;;;;;;12.94;90.90;99332.75;1740664;81;21052;-41
2021/05/19 03:00:01;;;;;;;7.92;2.52;;;;;;;12.93;90.87;99336.26;1747446;81;20965;-41
2021/05/19 03:02:27;;;;;;;5.53;2.12;;;;;;;12.95;90.61;99337.50;1741194;81;20958;-42
2021/05/19 03:04:54;;;;;;;5.37;2.58;;;;;;;12.97;90.34;99342.61;1747305;82;21138;-41
2021/05/19 03:07:20;;;;;;;19.82;2.50;;;;;;;13.00;90.17;99339.42;1747137;82;21005;-41
2021/05/19 03:09:47;;;;;;;27.75;3.85;;;;;;;13.05;89.74;99335.32;1746854;81;20993;-41
2021/05/19 03:12:15;;;;;;;33.13;3.08;;;;;;;13.11;89.67;99336.77;1741583;82;20990;-42
2021/05/19 03:14:42;;;;;;;30.23;4.00;;;;;;;13.18;89.47;99345.98;1741813;82;21525;-41
2021/05/19 03:17:09;;;;;;;44.08;4.92;;;;;;;13.21;88.95;99337.56;1743729;81;21779;-41
2021/05/19 03:19:35;;;;;;;42.65;3.65;;;;;;;13.21;88.20;99331.07;1745842;82;21029;-41
2021/05/19 03:22:02;;;;;;;24.80;2.72;;;;;;;13.25;87.94;99346.52;1744301;81;20996;-41
2021/05/19 03:24:28;;;;;;;9.88;2.47;;;;;;;13.27;87.59;99342.94;1744431;81;20909;-41
2021/05/19 03:26:55;;;;;;;14.53;3.20;;;;;;;13.27;86.98;99351.20;1742557;82;21001;-41
2021/05/19 03:29:21;;;;;;;14.13;4.08;;;;;;;13.29;86.94;99357.17;1742076;82;21097;-41
2021/05/19 03:31:48;;;;;;;9.35;3.33;;;;;;;13.31;86.94;99360.53;1738964;82;20994;-41
2021/05/19 03:34:15;;;;;;;8.25;2.87;;;;;;;13.34;86.79;99362.52;1747906;82;20985;-41
2021/05/19 03:36:42;;;;;;;7.03;3.20;;;;;;;13.35;86.46;99364.20;1747144;81;20965;-41
2021/05/19 03:39:10;;;;;;;7.92;2.98;;;;;;;13.37;86.38;99365.44;1746883;82;20882;-41
2021/05/19 03:41:37;;;;;;;10.30;3.70;;;;;;;13.35;85.95;99368.57;1743216;82;21706;-41
2021/05/19 03:44:05;;;;;;;15.43;5.03;;;;;;;13.37;85.82;99362.37;1745986;81;21654;-41
2021/05/19 03:46:32;;;;;;;32.20;5.20;;;;;;;13.38;85.35;99359.33;1747262;82;20954;-41
2021/05/19 03:49:00;;;;;;;19.75;5.53;;;;;;;13.40;85.43;99357.49;1744023;82;20994;-42
2021/05/19 03:51:28;;;;;;;41.00;6.05;;;;;;;13.43;85.00;99351.34;1747846;82;20937;-41
2021/05/19 03:53:54;;;;;;;18.12;5.60;;;;;;;13.44;85.17;99348.66;1725427;81;21075;-41
2021/05/19 03:56:21;;;;;;;15.20;5.80;;;;;;;13.48;85.00;99353.27;1747591;82;21514;-41
2021/05/19 03:58:48;;;;;;;27.82;6.60;;;;;;;13.48;84.91;99353.27;1747038;82;20858;-41
2021/05/19 04:01:15;;;;;;;21.68;5.60;;;;;;;13.49;85.10;99353.17;1745247;82;20993;-41
2021/05/19 04:03:42;;;;;;;11.20;5.05;;;;;;;13.55;85.04;99353.34;1743901;82;21017;-41
2021/05/19 04:06:09;;;;;;;11.38;4.37;;;;;;;13.62;85.17;99344.32;1746365;82;21029;-41
2021/05/19 04:08:39;;;;;;;11.12;5.28;;;;;;;13.69;85.02;99340.97;1746705;81;20985;-41
2021/05/19 04:11:07;;;;;;;7.15;4.97;;;;;;;13.75;84.94;99347.16;1739785;81;21077;-41
2021/05/19 04:13:33;;;;;;;13.93;5.58;;;;;;;13.81;84.81;99345.20;1744579;82;21000;-41
2021/05/19 04:16:00;;;;;;;10.30;5.50;;;;;;;13.84;84.69;99348.95;1740562;81;20904;-41
2021/05/19 04:18:26;;;;;;;11.55;5.50;;;;;;;13.88;84.59;99350.47;1746181;82;21090;-41
2021/05/19 04:20:53;;;;;;;9.55;4.03;;;;;;;13.90;83.59;99352.09;1747748;82;21387;-41
2021/05/19 04:23:22;;;;;;;8.03;3.80;;;;;;;13.87;82.91;99357.89;1744394;81;20950;-41
2021/05/19 04:25:48;;;;;;;13.60;4.58;;;;;;;13.87;82.58;99348.79;1744310;81;20946;-41
2021/05/19 04:28:15;;;;;;;16.27;5.50;;;;;;;13.88;82.42;99369.50;1741961;82;21553;-41
2021/05/19 04:30:41;;;;;;;11.40;4.70;;;;;;;13.88;82.04;99375.18;1744339;81;21051;-41
2021/05/19 04:33:07;;;;;;;15.20;4.30;;;;;;;13.88;82.16;99379.08;1747361;82;21002;-41
2021/05/19 04:35:35;;;;;;;7.95;3.62;;;;;;;13.87;81.60;99383.91;1746223;81;21538;-41
2021/05/19 04:38:02;;;;;;;12.60;4.25;;;;;;;13.84;81.51;99381.45;1743328;82;21600;-41
2021/05/19 04:40:29;;;;;;;8.05;3.45;;;;;;;13.81;81.48;99379.84;1745379;81;20909;-41
2021/05/19 04:42:57;;;;;;;7.87;3.70;;;;;;;13.83;81.28;99374.57;1747004;82;21088;-41
2021/05/19 04:45:23;;;;;;;9.75;4.80;;;;;;;13.85;81.34;99364.45;1747611;82;21119;-41
2021/05/19 04:47:49;;;;;;;9.20;4.08;;;;;;;13.92;81.40;99357.20;1746863;82;21128;-41
2021/05/19 04:50:16;;;;;;;5.62;3.45;;;;;;;14.01;81.52;99352.83;1745120;81;21033;-41
2021/05/19 04:52:43;;;;;;;6.22;3.90;;;;;;;14.15;81.79;99361.71;1746471;82;21004;-41
2021/05/19 04:55:11;;;;;;;8.50;3.22;;;;;;;14.34;81.92;99361.16;1744503;82;21091;-41
2021/05/19 04:57:38;;;;;;;9.30;3.90;;;;;;;14.57;81.52;99356.97;1746521;82;20966;-41
2021/05/19 05:00:08;;;;;;;9.13;3.83;;;;;;;14.83;81.12;99352.16;1747650;80;20855;-41
2021/05/19 05:02:34;;;;;;;7.28;4.22;;;;;;;15.07;80.36;99349.53;1747228;82;20929;-41
2021/05/19 05:05:00;;;;;;;10.53;3.70;;;;;;;15.29;78.86;99343.14;1742757;81;20934;-41
2021/05/19 05:07:27;;;;;;;6.03;3.08;;;;;;;15.50;78.01;99347.59;1743886;81;21598;-41
2021/05/19 05:09:56;;;;;;;4.50;2.75;;;;;;;15.75;78.17;99347.50;1746659;81;21574;-41
2021/05/19 05:12:22;;;;;;;7.17;3.85;;;;;;;16.01;77.18;99345.17;1747118;82;20914;-41
2021/05/19 05:14:49;;;;;;;7.87;3.67;;;;;;;16.23;76.33;99351.73;1745861;82;21017;-42
2021/05/19 05:17:16;;;;;;;6.12;3.42;;;;;;;16.42;76.25;99355.87;1744613;82;21080;-41
2021/05/19 05:19:44;;;;;;;7.60;3.52;;;;;;;16.48;74.91;99358.10;1746015;81;21846;-41
2021/05/19 05:22:12;;;;;;;7.45;3.37;;;;;;;16.48;74.71;99363.33;1746760;81;21000;-41
2021/05/19 05:24:38;;;;;;;7.30;2.98;;;;;;;16.47;72.91;99372.09;1744605;82;20998;-41
2021/05/19 05:27:05;;;;;;;6.47;3.30;;;;;;;16.40;73.21;99372.09;1746289;81;21029;-41
2021/05/19 05:29:32;;;;;;;6.97;3.67;;;;;;;16.40;73.57;99376.02;1744415;82;21008;-42
2021/05/19 05:31:59;;;;;;;11.45;3.45;;;;;;;16.36;72.97;99381.88;1741516;82;21024;-41
2021/05/19 05:34:25;;;;;;;4.50;2.60;;;;;;;16.30;73.25;99379.64;1746027;82;20976;-41
2021/05/19 05:36:52;;;;;;;7.03;2.42;;;;;;;16.27;73.12;99376.73;1740981;82;20985;-41
2021/05/19 05:39:19;;;;;;;5.45;2.17;;;;;;;16.15;72.35;99384.82;1742750;81;20949;-41
2021/05/19 05:41:45;;;;;;;5.97;1.72;;;;;;;16.03;72.52;99381.16;1747059;81;21494;-41
2021/05/19 05:46:30;;;;;;;4.80;2.45;;;;;;;15.88;72.53;99385.50;1776473;79;22515;-41
2021/05/19 05:48:58;;;;;;;4.25;1.95;;;;;;;15.75;72.12;99373.59;1749072;82;20986;-41
2021/05/19 05:51:25;;;;;;;4.12;1.70;;;;;;;15.68;72.73;99373.57;1749132;82;21700;-41
2021/05/19 05:53:52;;;;;;;2.58;1.47;;;;;;;15.65;72.82;99379.80;1748944;82;20902;-41
2021/05/19 05:56:19;;;;;;;7.00;1.70;;;;;;;15.59;72.22;99378.02;1749011;80;21017;-41
2021/05/19 05:58:45;;;;;;;2.90;1.55;;;;;;;15.57;72.95;99382.48;1749118;82;20970;-41
2021/05/19 06:01:12;;;;;;;2.33;1.45;;;;;;;15.61;73.04;99383.98;1749079;82;20942;-41
2021/05/19 06:03:38;;;;;;;4.22;1.80;;;;;;;15.70;73.25;99378.72;1749208;82;21051;-41
2021/05/19 06:06:05;;;;;;;6.15;1.87;;;;;;;15.93;72.09;99382.19;1749014;82;20982;-41
2021/05/19 06:08:32;;;;;;;7.90;2.58;;;;;;;16.23;72.48;99383.92;1749156;82;21437;-41
2021/05/19 06:10:58;;;;;;;9.65;2.72;;;;;;;16.70;72.95;99385.09;1749010;82;20891;-41
2021/05/19 06:13:25;;;;;;;10.13;2.42;;;;;;;17.16;71.02;99389.25;1749122;80;20993;-41
2021/05/19 06:15:52;;;;;;;5.50;2.60;;;;;;;17.55;70.25;99385.95;1748969;82;21160;-41
2021/05/19 06:18:18;;;;;;;4.10;2.22;;;;;;;17.78;69.60;99391.02;1749052;82;21001;-41
2021/05/19 06:20:45;;;;;;;5.90;1.92;;;;;;;18.01;68.85;99384.73;1748893;82;20910;-41
2021/05/19 06:23:11;;;;;;;9.50;1.70;;;;;;;18.18;67.88;99390.18;1749119;82;20922;-42
2021/05/19 06:25:37;;;;;;;4.40;1.45;;;;;;;18.31;66.76;99393.64;1749016;82;20958;-42
2021/05/19 06:28:04;;;;;;;9.35;2.37;;;;;;;18.24;65.43;99405.48;1728027;82;21065;-42
2021/05/19 06:30:30;;;;;;;8.03;2.50;;;;;;;18.08;65.38;99406.52;1719134;83;20977;-42
2021/05/19 06:32:58;;;;;;;6.42;1.72;;;;;;;17.91;65.52;99406.76;1719252;83;20966;-42
2021/05/19 06:35:25;;;;;;;11.18;2.20;;;;;;;17.71;65.55;99404.97;1719084;83;20938;-42
2021/05/19 06:37:51;;;;;;;9.35;1.80;;;;;;;17.52;66.74;99413.17;1719174;83;20910;-42
2021/05/19 06:40:18;;;;;;;4.60;2.10;;;;;;;17.41;67.41;99412.55;1719105;83;21023;-42
2021/05/19 06:42:44;;;;;;;4.72;2.08;;;;;;;17.28;67.77;99415.10;1719248;82;21080;-42
2021/05/19 06:45:12;;;;;;;11.70;2.10;;;;;;;17.18;68.42;99413.53;1692275;83;20934;-42
2021/05/19 06:47:39;;;;;;;3.00;2.20;;;;;;;17.14;68.38;99411.19;1727445;83;20997;-42
2021/05/19 06:50:07;;;;;;;7.28;2.20;;;;;;;17.09;68.86;99412.33;1727409;83;20870;-42
2021/05/19 06:52:35;;;;;;;3.72;1.72;;;;;;;17.15;68.22;99416.79;1727485;83;20977;-42
2021/05/19 06:55:06;;;;;;;5.67;2.02;;;;;;;17.16;68.43;99416.70;1727398;83;21602;-41
2021/05/19 06:57:35;;;;;;;7.95;2.00;;;;;;;17.29;68.13;99414.62;1726991;83;21029;-42
2021/05/19 07:00:05;;;;;;;4.95;2.15;;;;;;;17.56;68.35;99416.44;1726974;83;20894;-42
2021/05/19 07:02:32;;;;;;;8.35;2.25;;;;;;;17.90;67.87;99406.39;1726928;83;20918;-42
2021/05/19 07:04:58;;;;;;;6.87;2.47;;;;;;;18.16;67.10;99408.60;1726958;83;21060;-42
2021/05/19 07:07:24;;;;;;;6.28;1.95;;;;;;;18.39;66.13;99406.22;1726879;83;21574;-42
2021/05/19 07:09:51;;;;;;;4.35;2.55;;;;;;;18.70;64.62;99419.87;1726961;83;20906;-42
2021/05/19 07:12:18;;;;;;;8.43;2.05;;;;;;;18.92;64.49;99421.83;1726856;83;20958;-42
2021/05/19 07:14:50;;;;;;;5.97;2.15;;;;;;;19.04;62.75;99420.16;1726892;83;21036;-42
2021/05/19 07:17:14;;;;;;;6.35;3.17;;;;;;;19.16;63.33;99415.83;1726386;83;21666;-42
2021/05/19 07:19:42;;;;;;;4.67;3.45;;;;;;;19.17;61.70;99421.44;1726893;83;21032;-42
2021/05/19 07:22:08;;;;;;;8.40;4.62;;;;;;;18.86;61.80;99419.64;1726971;81;20894;-42
2021/05/19 07:24:35;;;;;;;5.42;3.70;;;;;;;18.52;62.10;99421.94;1726851;83;20997;-42
2021/05/19 07:27:02;;;;;;;12.47;3.20;;;;;;;18.16;63.18;99418.25;1726785;81;21076;-42
2021/05/19 07:29:28;;;;;;;6.05;3.47;;;;;;;17.99;64.29;99421.48;1726969;81;21136;-42
2021/05/19 07:31:54;;;;;;;7.92;4.10;;;;;;;17.88;64.75;99418.74;1726853;83;20874;-42
2021/05/19 07:34:21;;;;;;;9.40;3.47;;;;;;;17.78;65.14;99427.17;1699030;83;20902;-42
2021/05/19 07:36:47;;;;;;;5.60;4.37;;;;;;;17.64;65.55;99433.78;1726886;83;20922;-42
2021/05/19 07:39:14;;;;;;;8.48;5.72;;;;;;;17.40;66.53;99427.88;1726892;81;20918;-41
2021/05/19 07:41:40;;;;;;;9.70;5.53;;;;;;;17.21;67.02;99429.02;1726821;83;21049;-42
2021/05/19 07:44:07;;;;;;;10.03;6.12;;;;;;;17.13;67.84;99427.36;1726803;83;20890;-42
2021/05/19 07:46:34;;;;;;;10.08;6.85;;;;;;;17.14;68.64;99425.12;1710919;83;20959;-42
2021/05/19 07:49:01;;;;;;;9.80;7.08;;;;;;;17.24;69.11;99429.31;1705934;84;21599;-42
2021/05/19 07:51:28;;;;;;;8.35;7.55;;;;;;;17.38;68.92;99424.52;1705888;84;21560;-41
2021/05/19 07:53:55;;;;;;;32.75;9.18;;;;;;;17.41;68.44;99427.38;1705845;84;21094;-42
2021/05/19 07:56:35;;;;;;;40.67;9.15;;;;;;;17.38;68.15;99430.57;1705784;84;21204;-42
2021/05/19 08:04:07;;;;;;;40.98;9.58;;;;;;;17.08;69.53;99428.13;1705751;84;21527;-41
2021/05/19 08:06:34;;;;;;;15.28;8.28;;;;;;;17.05;70.30;99429.14;1705892;84;21015;-42
2021/05/19 08:09:01;;;;;;;15.38;7.55;;;;;;;16.83;70.58;99437.44;1705737;83;20967;-41
2021/05/19 08:11:30;;;;;;;27.82;8.23;;;;;;;16.55;71.29;99436.94;1705797;82;20895;-44
2021/05/19 08:13:57;;;;;;;18.00;7.42;;;;;;;16.30;73.70;99462.74;1705977;84;21570;-43
2021/05/19 08:16:24;;;;;;;20.85;6.42;;;;;;;15.83;73.98;99437.56;1705976;84;21417;-43
2021/05/19 08:18:52;;;;;;;14.60;6.15;;;;;;;15.36;74.95;99433.59;1705931;84;21162;-43
2021/05/19 08:21:18;;;;;;;19.25;7.03;;;;;;;15.02;76.40;99427.57;1705667;84;21555;-43
2021/05/19 08:23:46;;;;;;;12.73;5.85;;;;;;;14.76;78.19;99427.19;1705922;84;20974;-43
2021/05/19 08:26:13;;;;;;;12.95;5.80;;;;;;;14.61;80.51;99424.44;1705793;84;20983;-43
2021/05/19 08:28:39;;;;;;;13.60;6.47;;;;;;;14.50;81.58;99428.04;1705982;82;21002;-43
2021/05/19 08:31:08;;;;;;;8.93;6.28;;;;;;;14.48;82.67;99435.09;1705739;84;21010;-43
2021/05/19 08:33:35;;;;;;;11.85;6.20;;;;;;;14.53;83.61;99447.44;1705722;84;20977;-43
2021/05/19 08:36:01;;;;;;;11.57;5.92;;;;;;;14.64;84.37;99446.86;1705708;84;21571;-43
2021/05/19 08:38:28;;;;;;;8.45;5.08;;;;;;;14.77;85.14;99449.26;1705851;84;21523;-42
2021/05/19 08:40:54;;;;;;;7.75;5.00;;;;;;;14.96;85.37;99443.54;1705970;82;20927;-43
2021/05/19 08:43:21;;;;;;;16.67;5.78;;;;;;;15.19;85.58;99447.06;1705839;84;21064;-43
2021/05/19 08:45:49;;;;;;;7.25;4.67;;;;;;;15.68;87.29;99438.78;1709659;83;20986;-43
2021/05/19 08:48:15;;;;;;;6.28;3.20;;;;;;;16.34;87.35;99429.44;1719574;82;21550;-42
2021/05/19 08:50:42;;;;;;;5.40;2.92;;;;;;;16.92;84.52;99421.63;1719263;83;21475;-42
2021/05/19 08:53:09;;;;;;;4.15;2.90;;;;;;;17.32;80.07;99420.50;1719296;83;21100;-42
2021/05/19 08:55:37;;;;;;;2.72;2.15;;;;;;;17.78;79.67;99411.47;1719258;83;20997;-42
2021/05/19 08:58:04;;;;;;;2.50;2.30;;;;;;;18.21;76.44;99416.16;1719321;83;21052;-42
2021/05/19 09:00:33;;;;;;;4.67;2.50;;;;;;;18.56;73.11;99416.86;1719235;83;20914;-42
2021/05/19 09:03:16;;;;;;;10.78;3.20;;;;;;;18.81;73.27;99417.33;1719489;83;20937;-42
2021/05/19 09:05:48;;;;;;;7.78;2.33;;;;;;;19.01;72.77;99411.66;1719253;83;20978;-41
2021/05/19 09:08:18;;;;;;;6.83;2.75;;;;;;;19.13;71.90;99412.58;1719246;83;21081;-41
2021/05/19 09:11:01;;;;;;;4.78;2.58;;;;;;;19.29;70.81;99401.83;1719147;83;20974;-42
2021/05/19 09:13:45;;;;;;;7.12;2.52;;;;;;;19.53;69.91;99402.68;1719199;83;21538;-45
2021/05/19 09:16:12;;;;;;;12.18;2.72;;;;;;;19.93;70.46;99397.63;1719007;83;20957;-41
2021/05/19 09:18:54;;;;;;;16.15;2.85;;;;;;;20.38;67.88;99388.17;1719228;83;20997;-41
2021/05/19 09:21:34;;;;;;;8.53;2.67;;;;;;;20.63;65.02;99395.48;1719200;82;21068;-42
2021/05/19 09:24:03;;;;;;;4.42;1.60;;;;;;;20.92;65.98;99393.25;1719393;83;21002;-41
2021/05/19 09:26:28;;;;;;;4.60;1.57;;;;;;;21.22;62.10;99391.77;1719104;82;21081;-41
2021/05/19 09:29:22;;;;;;;2.25;1.37;;;;;;;21.42;59.35;99394.59;1719221;83;20977;-41
2021/05/19 09:31:53;;;;;;;2.20;1.32;;;;;;;21.60;58.52;99392.72;1719311;83;20974;-41
2021/05/19 09:34:39;;;;;;;6.83;2.02;;;;;;;21.84;59.00;99389.06;1718359;83;21094;-41
2021/05/19 09:37:22;;;;;;;6.47;1.27;;;;;;;22.13;57.01;99388.46;1719161;83;21578;-41
2021/05/19 09:40:11;;;;;;;3.40;1.52;;;;;;;22.27;55.86;99390.75;1719389;83;21045;-42
2021/05/19 09:42:49;;;;;;;3.40;1.32;;;;;;;22.56;57.02;99391.41;1719324;82;20981;-42
2021/05/19 09:45:23;;;;;;;4.50;1.27;;;;;;;22.86;52.98;99384.48;1719381;83;20969;-40
2021/05/19 09:47:53;;;;;;;4.23;1.20;;;;;;;22.87;50.82;99379.55;1706060;83;21112;-42
2021/05/19 09:50:24;;;;;;;4.22;1.20;;;;;;;22.96;51.36;99376.09;1705669;83;20942;-42
2021/05/19 09:53:10;;;;;;;3.27;1.20;;;;;;;23.18;50.16;99382.12;1693386;84;20991;-42
2021/05/19 09:55:39;;;;;;;1.47;0.95;;;;;;;23.37;50.43;99377.38;1705868;84;20947;-42
2021/05/19 09:58:06;;;;;;;6.70;1.22;;;;;;;23.59;47.89;99368.84;1705881;82;20919;-42
2021/05/19 10:00:32;;;;;;;2.08;0.80;;;;;;;23.46;46.66;99370.91;1705861;83;21083;-42
2021/05/19 10:03:01;;;;;;;3.08;0.60;;;;;;;23.32;42.48;99372.16;1705791;84;20914;-42
2021/05/19 10:05:38;;;;;;;4.10;1.00;;;;;;;23.16;46.11;99374.83;1705812;84;21444;-42
2021/05/19 10:08:01;;;;;;;12.13;1.15;;;;;;;23.30;46.95;99375.42;1705633;84;20943;-42
2021/05/19 10:10:30;;;;;;;4.10;1.32;;;;;;;23.53;46.18;99372.05;1705709;83;20986;-41
2021/05/19 10:12:56;;;;;;;4.60;1.25;;;;;;;23.72;49.03;99373.84;1705871;82;21058;-42
2021/05/19 10:15:28;;;;;;;9.38;2.15;;;;;;;24.00;46.87;99375.28;1705599;83;21045;-41
2021/05/19 10:18:04;;;;;;;3.40;1.45;;;;;;;24.20;44.57;99377.92;1705521;83;20994;-41
2021/05/19 10:20:34;;;;;;;6.05;1.62;;;;;;;24.01;46.31;99371.69;1705838;83;21519;-42
2021/05/19 10:23:01;;;;;;;3.02;1.40;;;;;;;23.69;46.58;99374.13;1705772;82;20935;-42
2021/05/19 10:25:39;;;;;;;2.25;1.17;;;;;;;23.51;47.08;99374.81;1705835;82;21064;-42
2021/05/19 10:28:18;;;;;;;4.58;1.52;;;;;;;23.52;45.51;99376.48;1705610;82;20954;-42
2021/05/19 10:30:49;;;;;;;7.20;1.30;;;;;;;23.47;44.42;99378.70;1705626;84;20943;-43
2021/05/19 10:33:39;;;;;;;4.62;1.10;;;;;;;23.51;44.58;99388.52;1705863;84;20998;-43
2021/05/19 10:36:27;;;;;;;7.30;1.20;;;;;;;23.32;41.36;99384.88;1705948;82;21630;-42
2021/05/19 10:39:18;;;;;;;10.65;2.30;;;;;;;22.77;43.61;99383.94;1681460;84;21194;-42
2021/05/19 10:41:50;;;;;;;20.25;2.30;;;;;;;22.19;44.76;99386.62;1705775;83;20971;-42
2021/05/19 10:44:28;;;;;;;25.17;2.20;;;;;;;21.66;47.79;99408.07;1705531;83;21547;-42
2021/05/19 10:47:14;;;;;;;13.08;2.95;;;;;;;21.33;49.43;99411.11;1709374;83;20947;-41
2021/05/19 10:50:02;;;;;;;29.95;3.10;;;;;;;21.05;50.26;99414.63;1710696;83;21614;-42
2021/05/19 10:52:47;;;;;;;19.37;2.40;;;;;;;20.71;51.82;99417.25;1713133;82;21101;-42
2021/05/19 10:57:58;;;;;;;10.38;1.82;;;;;;;19.92;54.08;99410.39;1713743;83;20974;-43
2021/05/19 11:00:26;;;;;;;22.02;2.50;;;;;;;19.61;55.29;99413.94;1713567;83;21235;-41
2021/05/19 11:03:02;;;;;;;29.90;2.27;;;;;;;19.45;56.18;99425.17;1713435;83;21006;-42
2021/05/19 11:05:36;;;;;;;25.05;2.98;;;;;;;19.35;57.93;99427.16;1713680;83;20998;-42
2021/05/19 11:08:13;;;;;;;47.30;3.30;;;;;;;19.35;58.86;99435.52;1713828;82;20990;-43
2021/05/19 11:10:51;;;;;;;;;;;;;;;19.26;58.34;99451.43;1716259;83;20911;-42
2021/05/19 11:13:22;;;;;;;22.65;2.85;;;;;;;18.94;57.13;99460.56;1713759;83;20235;-41
2021/05/19 11:21:23;;;;;;;22.62;1.25;;;;;;;17.47;58.87;99471.48;1713662;83;21602;-42
2021/05/19 11:24:11;;;;;;;9.25;1.00;;;;;;;17.05;60.75;99464.88;1713657;83;20970;-41
2021/05/19 11:26:41;;;;;;;1.82;0.50;;;;;;;16.76;62.62;99473.99;1713572;82;20938;-42
2021/05/19 11:29:10;;;;;;;6.28;0.60;;;;;;;16.61;64.72;99471.83;1713089;83;20910;-42
2021/05/19 11:31:43;;;;;;;2.87;0.80;;;;;;;16.45;66.57;99468.84;1713727;83;20992;-42
2021/05/19 11:34:11;;;;;;;1.12;0.82;;;;;;;16.36;68.01;99468.05;1713628;83;21051;-42
2021/05/19 11:36:44;;;;;;;15.05;1.20;;;;;;;16.27;68.93;99466.81;1713747;83;20927;-44
2021/05/19 11:39:39;;;;;;;28.87;2.47;;;;;;;16.15;70.37;99469.66;1713624;82;20927;-43
2021/05/19 11:42:16;;;;;;;11.15;2.47;;;;;;;15.90;71.34;99466.31;1713697;83;20998;-44
2021/05/19 11:45:00;;;;;;;14.65;2.40;;;;;;;15.67;72.68;99469.71;1713760;83;21586;-43
2021/05/19 11:47:38;;;;;;;25.20;3.17;;;;;;;15.60;73.57;99469.68;1709234;83;21603;-45
2021/05/19 11:50:17;;;;;;;7.80;1.77;;;;;;;15.49;74.35;99462.44;1705157;84;21045;-44
2021/05/19 11:52:50;;;;;;;5.92;2.40;;;;;;;15.33;73.76;99450.70;1705901;84;20990;-43
2021/05/19 11:55:46;;;;;;;6.50;1.82;;;;;;;15.21;74.11;99450.43;1705790;84;20990;-44
2021/05/19 11:58:21;;;;;;;9.03;2.12;;;;;;;15.19;75.23;99448.84;1705909;84;21097;-44